Time;durP1;ratioP1;P1;durP2;ratioP2;P2;SDS_P1;SDS_P2;PMS_P1;PMS_P2;Temp;Humidity;BMP_temperature;BMP_pressure;BME280_temperature;BME280_humidity;BME280_pressure;Samples;Min_cycle;Max_cycle;Signal;HPM_P1;HPM_P2
2021/10/03 00:00:25;;;;;;;29.50;10.90;;;;;;;9.45;59.83;95756.47;4935016;28;20657;-80
2021/10/03 00:02:51;;;;;;;20.38;8.98;;;;;;;9.41;59.74;95758.63;4937552;28;20104;-81
2021/10/03 00:05:17;;;;;;;12.50;7.57;;;;;;;9.36;59.84;95760.25;4921090;28;20038;-81
2021/10/03 00:07:48;;;;;;;11.10;6.65;;;;;;;9.32;60.11;95754.66;4947479;28;20043;-80
2021/10/03 00:10:14;;;;;;;8.30;7.10;;;;;;;9.31;59.65;95763.47;4952436;28;20039;-82
2021/10/03 00:12:39;;;;;;;12.95;7.85;;;;;;;9.30;59.74;95767.06;4924799;28;20046;-81
2021/10/03 00:15:06;;;;;;;17.20;7.25;;;;;;;9.24;59.67;95763.44;4921573;28;20027;-80
2021/10/03 00:17:32;;;;;;;13.95;8.45;;;;;;;9.21;60.12;95763.03;4954400;28;20050;-81
2021/10/03 00:20:10;;;;;;;22.10;9.27;;;;;;;9.17;60.08;95756.66;4953930;28;20027;-80
2021/10/03 00:22:36;;;;;;;11.88;8.27;;;;;;;9.16;60.33;95760.25;5235818;23;20137;-83
2021/10/03 00:25:01;;;;;;;14.88;8.20;;;;;;;9.14;60.13;95762.25;4987165;28;20027;-82
2021/10/03 00:27:27;;;;;;;13.40;9.25;;;;;;;9.10;60.28;95758.44;4967819;28;20037;-80
2021/10/03 00:29:52;;;;;;;17.90;10.25;;;;;;;9.03;60.34;95754.06;4975645;28;20031;-81
2021/10/03 00:32:18;;;;;;;23.20;9.20;;;;;;;9.02;60.90;95752.47;4958846;28;20038;-80
2021/10/03 00:34:43;;;;;;;13.00;8.75;;;;;;;8.95;60.74;95763.84;4950762;28;20098;-80
2021/10/03 00:37:08;;;;;;;22.55;11.10;;;;;;;8.93;60.93;95751.03;4977546;28;20043;-81
2021/10/03 00:39:34;;;;;;;20.73;10.20;;;;;;;8.92;61.22;95752.03;4975413;28;20113;-80
2021/10/03 00:42:00;;;;;;;24.65;11.15;;;;;;;8.86;60.85;95742.47;4976670;28;20122;-80
2021/10/03 00:44:25;;;;;;;19.13;11.30;;;;;;;8.80;60.78;95745.88;5068588;23;20124;-81
2021/10/03 00:46:51;;;;;;;18.42;12.07;;;;;;;8.80;61.08;95750.25;5014522;28;20509;-81
2021/10/03 00:49:16;;;;;;;29.30;14.63;;;;;;;8.82;60.84;95751.66;5009835;28;20027;-81
2021/10/03 00:51:42;;;;;;;30.52;13.65;;;;;;;8.79;61.50;95746.06;4979977;28;20034;-82
2021/10/03 00:54:07;;;;;;;22.67;12.43;;;;;;;8.72;61.78;95738.25;4998147;28;20104;-82
2021/10/03 00:56:33;;;;;;;23.13;12.30;;;;;;;8.70;61.56;95743.66;4997893;28;20407;-81
2021/10/03 00:58:58;;;;;;;27.60;12.75;;;;;;;8.68;61.20;95737.06;4962808;28;20034;-81
2021/10/03 01:01:24;;;;;;;30.67;15.48;;;;;;;8.59;61.24;95746.00;4993958;28;20554;-81
2021/10/03 01:03:50;;;;;;;30.90;14.73;;;;;;;8.56;61.51;95741.22;4994634;28;20054;-80
2021/10/03 01:06:15;;;;;;;22.95;13.00;;;;;;;8.57;62.05;95742.81;4981165;28;20026;-82
2021/10/03 01:08:41;;;;;;;21.83;13.00;;;;;;;8.51;62.18;95741.00;4996871;28;20524;-82
2021/10/03 01:11:32;;;;;;;28.48;15.50;;;;;;;8.51;62.66;95744.41;4998013;28;20498;-82
2021/10/03 01:13:57;;;;;;;29.60;16.17;;;;;;;8.47;62.88;95739.81;4996466;28;20045;-82
2021/10/03 01:16:24;;;;;;;44.33;24.20;;;;;;;8.51;61.96;95741.00;4999094;28;20038;-82
2021/10/03 01:18:49;;;;;;;47.85;27.13;;;;;;;8.41;62.64;95739.56;4999309;28;20049;-80
2021/10/03 01:21:15;;;;;;;43.70;25.85;;;;;;;8.45;62.72;95741.78;4993017;28;20418;-82
2021/10/03 01:23:42;;;;;;;36.97;23.88;;;;;;;8.45;62.76;95741.78;5012882;28;20048;-80
2021/10/03 01:26:08;;;;;;;47.35;28.85;;;;;;;8.40;62.49;95739.78;4995658;28;20045;-82
2021/10/03 01:28:33;;;;;;;72.40;43.80;;;;;;;8.39;62.27;95738.97;5000731;28;20030;-83
2021/10/03 01:30:59;;;;;;;61.53;43.47;;;;;;;8.42;62.28;95743.78;5002408;28;20034;-83
2021/10/03 01:33:25;;;;;;;67.13;42.30;;;;;;;8.40;62.16;95740.56;5002120;28;20042;-83
2021/10/03 01:35:51;;;;;;;67.07;44.40;;;;;;;8.34;62.18;95746.56;4986530;28;20081;-83
2021/10/03 01:38:18;;;;;;;75.07;48.63;;;;;;;8.33;61.75;95741.53;4986410;28;20034;-82
2021/10/03 01:40:44;;;;;;;69.53;48.13;;;;;;;8.27;62.26;95729.34;4984938;28;20121;-82
2021/10/03 01:43:09;;;;;;;71.30;46.75;;;;;;;8.21;62.36;95736.09;4985052;28;20062;-82
2021/10/03 01:45:35;;;;;;;63.15;38.50;;;;;;;8.17;62.39;95736.69;5001817;28;20035;-82
2021/10/03 01:48:09;;;;;;;50.35;33.47;;;;;;;8.17;62.11;95742.66;4982823;28;20034;-80
2021/10/03 01:50:56;;;;;;;39.80;28.60;;;;;;;8.17;62.12;95737.50;4999660;28;20042;-81
2021/10/03 01:53:27;;;;;;;46.50;28.60;;;;;;;8.15;62.14;95730.91;4994339;28;20038;-81
2021/10/03 01:55:52;;;;;;;42.50;28.52;;;;;;;8.02;62.75;95737.63;4996366;28;20493;-82
2021/10/03 01:58:20;;;;;;;31.10;21.38;;;;;;;8.07;63.08;95739.63;4980492;28;20089;-81
2021/10/03 02:00:47;;;;;;;28.13;18.17;;;;;;;8.09;62.10;95732.47;4998558;28;20038;-80
2021/10/03 02:05:55;;;;;;;27.55;14.80;;;;;;;8.07;62.65;95731.88;5135948;23;20072;-80
2021/10/03 02:11:02;;;;;;;21.85;12.57;;;;;;;8.00;63.16;95723.28;5006474;28;20519;-83
2021/10/03 02:13:27;;;;;;;27.65;12.90;;;;;;;8.00;62.80;95728.47;5007591;28;20034;-82
2021/10/03 02:15:53;;;;;;;29.02;12.90;;;;;;;7.94;62.69;95726.63;5008116;28;20110;-82
2021/10/03 02:18:19;;;;;;;20.08;11.05;;;;;;;7.93;62.92;95732.78;4974198;28;20473;-83
2021/10/03 02:20:45;;;;;;;26.50;11.98;;;;;;;7.89;63.08;95729.78;4992066;28;20038;-82
2021/10/03 02:23:12;;;;;;;27.30;10.77;;;;;;;7.86;63.42;95722.41;4988536;28;20034;-82
2021/10/03 02:25:47;;;;;;;18.08;11.18;;;;;;;7.85;63.04;95720.81;5009342;28;20515;-82
2021/10/03 02:28:21;;;;;;;32.50;11.23;;;;;;;7.87;63.15;95718.84;4974714;28;20638;-83
2021/10/03 02:30:47;;;;;;;22.65;12.23;;;;;;;7.79;62.79;95717.19;5009774;28;20129;-81
2021/10/03 02:33:13;;;;;;;21.25;10.75;;;;;;;7.79;63.28;95716.38;4977364;28;20037;-81
2021/10/03 02:35:39;;;;;;;21.83;11.40;;;;;;;7.77;62.61;95721.75;4989178;28;20497;-84
2021/10/03 02:38:30;;;;;;;26.35;11.30;;;;;;;7.77;63.05;95716.59;4991100;28;20026;-83
2021/10/03 02:40:56;;;;;;;21.13;10.55;;;;;;;7.74;63.52;95716.97;4986243;28;20533;-83
2021/10/03 02:43:23;;;;;;;22.40;10.57;;;;;;;7.62;63.31;95717.69;4974996;28;20037;-83
2021/10/03 02:45:51;;;;;;;29.02;10.93;;;;;;;7.63;63.17;95722.69;5009012;28;20073;-83
2021/10/03 02:48:17;;;;;;;35.83;11.77;;;;;;;7.64;63.20;95719.09;5009518;28;20045;-83
2021/10/03 02:50:42;;;;;;;29.38;14.85;;;;;;;7.65;63.44;95725.91;4972169;28;20037;-83
2021/10/03 02:53:09;;;;;;;19.63;10.48;;;;;;;7.67;63.07;95734.28;4989852;28;20038;-83
2021/10/03 02:55:36;;;;;;;17.98;12.93;;;;;;;7.59;63.23;95736.19;5009850;28;20069;-83
2021/10/03 02:58:02;;;;;;;31.42;20.52;;;;;;;7.55;63.38;95729.81;4990707;28;20046;-83
2021/10/03 03:00:28;;;;;;;40.17;16.15;;;;;;;7.58;63.46;95726.84;4990373;28;20034;-83
2021/10/03 03:02:53;;;;;;;29.90;12.48;;;;;;;7.60;63.42;95728.25;4976907;28;20034;-83
2021/10/03 03:05:18;;;;;;;37.20;12.02;;;;;;;7.61;63.03;95729.03;5095856;23;20054;-82
2021/10/03 03:07:44;;;;;;;22.38;12.95;;;;;;;7.52;63.57;95723.22;4993915;28;20527;-82
2021/10/03 03:10:09;;;;;;;35.47;14.68;;;;;;;7.54;64.06;95729.00;4975377;28;20065;-82
2021/10/03 03:12:36;;;;;;;25.60;13.02;;;;;;;7.57;63.83;95723.44;4971438;28;20061;-81
2021/10/03 03:15:26;;;;;;;27.17;14.15;;;;;;;7.56;63.61;95731.41;4987401;28;20027;-81
2021/10/03 03:17:51;;;;;;;42.67;19.05;;;;;;;7.51;63.28;95729.41;4978249;28;20554;-81
2021/10/03 03:20:17;;;;;;;38.00;18.83;;;;;;;7.50;63.32;95733.78;5046321;22;20057;-81
2021/10/03 03:22:42;;;;;;;42.08;19.75;;;;;;;7.49;63.36;95726.19;5009089;28;20027;-82
2021/10/03 03:25:09;;;;;;;39.03;18.65;;;;;;;7.46;63.43;95721.38;4995483;28;20046;-82
2021/10/03 03:27:35;;;;;;;39.72;22.40;;;;;;;7.41;63.97;95714.19;5014857;28;20486;-83
2021/10/03 03:30:00;;;;;;;47.38;25.50;;;;;;;7.40;63.74;95724.75;4994716;28;20046;-82
2021/10/03 03:32:25;;;;;;;41.58;21.23;;;;;;;7.43;63.30;95724.34;4973807;28;20053;-82
2021/10/03 03:34:51;;;;;;;30.55;17.75;;;;;;;7.48;63.28;95724.56;5087135;23;20056;-83
2021/10/03 03:37:16;;;;;;;42.60;17.92;;;;;;;7.50;62.97;95722.63;5018653;28;20030;-82
2021/10/03 03:39:45;;;;;;;23.92;15.93;;;;;;;7.42;63.65;95715.78;4997213;28;20065;-83
2021/10/03 03:43:01;;;;;;;30.80;15.82;;;;;;;7.40;63.53;95716.97;5000402;28;20460;-82
2021/10/03 03:45:26;;;;;;;29.80;13.68;;;;;;;7.32;63.60;95704.16;5018355;28;20025;-82
2021/10/03 03:48:17;;;;;;;38.72;13.55;;;;;;;7.34;63.33;95709.97;5018350;28;20045;-81
2021/10/03 03:50:54;;;;;;;34.53;14.05;;;;;;;7.34;63.60;95715.16;5017388;28;21052;-83
2021/10/03 03:53:20;;;;;;;23.20;13.65;;;;;;;7.35;63.03;95701.22;5019428;28;20044;-82
2021/10/03 03:55:45;;;;;;;27.48;13.98;;;;;;;7.29;64.03;95704.56;5019116;28;20029;-82
2021/10/03 03:58:10;;;;;;;37.20;15.80;;;;;;;7.29;63.59;95714.91;4984209;28;20045;-83
2021/10/03 04:00:36;;;;;;;30.88;14.57;;;;;;;7.29;63.46;95707.16;5018424;28;20034;-83
2021/10/03 04:03:20;;;;;;;34.47;22.10;;;;;;;7.26;63.54;95710.13;5019055;28;20048;-83
2021/10/03 04:05:46;;;;;;;45.22;25.45;;;;;;;7.25;63.23;95713.69;5018029;28;20038;-83
2021/10/03 04:08:11;;;;;;;51.80;31.67;;;;;;;7.25;63.09;95703.34;5016924;28;20065;-83
2021/10/03 04:10:37;;;;;;;62.17;38.10;;;;;;;7.27;63.36;95711.72;5000579;28;20034;-83
2021/10/03 04:13:02;;;;;;;59.50;34.78;;;;;;;7.25;63.63;95711.09;4967857;28;20044;-83
2021/10/03 04:15:28;;;;;;;62.03;36.63;;;;;;;7.18;64.16;95719.63;4983315;28;20464;-83
2021/10/03 04:17:53;;;;;;;60.15;34.55;;;;;;;7.11;64.21;95723.13;5016064;28;20065;-83
2021/10/03 04:20:19;;;;;;;64.70;33.25;;;;;;;7.19;63.25;95725.59;4998567;28;20090;-83
2021/10/03 04:23:09;;;;;;;63.15;39.97;;;;;;;7.18;63.29;95732.56;4967265;28;20481;-83
2021/10/03 04:25:35;;;;;;;105.95;67.38;;;;;;;7.17;63.71;95736.13;5017078;28;20040;-83
2021/10/03 04:28:00;;;;;;;140.77;77.15;;;;;;;7.12;63.80;95735.88;5017127;28;20034;-82
2021/10/03 04:30:26;;;;;;;125.07;73.22;;;;;;;7.13;63.66;95734.88;5016990;28;20042;-83
2021/10/03 04:32:51;;;;;;;126.60;74.25;;;;;;;7.17;63.18;95736.13;4982576;28;20037;-83
2021/10/03 04:35:19;;;;;;;132.10;76.28;;;;;;;7.16;63.46;95737.13;5087338;23;20505;-82
2021/10/03 04:37:45;;;;;;;96.10;62.92;;;;;;;7.14;63.34;95744.25;5016670;28;20026;-81
2021/10/03 04:40:11;;;;;;;94.30;58.00;;;;;;;7.18;63.58;95750.66;5011449;28;20045;-82
2021/10/03 04:42:36;;;;;;;88.53;55.65;;;;;;;7.24;63.78;95743.94;5007670;28;20030;-82
2021/10/03 04:45:02;;;;;;;84.18;51.88;;;;;;;7.29;63.64;95751.91;5003972;28;20533;-82
2021/10/03 04:47:31;;;;;;;103.63;50.70;;;;;;;7.44;63.94;95750.03;5006800;28;20493;-82
2021/10/03 04:49:58;;;;;;;84.07;47.30;;;;;;;7.65;63.18;95754.38;4992521;28;20053;-82
2021/10/03 04:52:27;;;;;;;91.88;45.15;;;;;;;7.93;62.06;95748.31;4989461;28;20536;-82
2021/10/03 04:54:52;;;;;;;79.25;42.15;;;;;;;8.21;61.42;95756.84;5008620;28;20081;-81
2021/10/03 04:57:18;;;;;;;88.63;44.03;;;;;;;8.53;60.47;95754.56;5011180;28;20074;-81
2021/10/03 04:59:43;;;;;;;95.13;48.65;;;;;;;8.90;59.86;95761.03;4993783;28;20042;-82
2021/10/03 05:02:09;;;;;;;108.70;46.60;;;;;;;9.27;58.43;95760.47;5008992;28;20513;-82
2021/10/03 05:04:35;;;;;;;86.80;42.55;;;;;;;9.72;57.45;95765.78;4989360;28;20038;-82
2021/10/03 05:07:00;;;;;;;113.50;42.85;;;;;;;10.12;56.62;95761.31;5014017;28;20057;-82
2021/10/03 05:09:25;;;;;;;64.95;37.05;;;;;;;10.61;55.56;95765.13;5009947;28;20050;-82
2021/10/03 05:11:51;;;;;;;75.70;35.08;;;;;;;11.05;54.00;95768.66;5011172;28;20037;-82
2021/10/03 05:14:19;;;;;;;83.07;35.35;;;;;;;11.47;52.73;95767.13;4999037;28;20038;-82
2021/10/03 05:16:45;;;;;;;52.90;31.27;;;;;;;11.81;51.43;95765.84;5006778;28;20060;-82
2021/10/03 05:19:10;;;;;;;86.95;34.05;;;;;;;12.10;50.79;95761.75;5011641;28;20038;-82
2021/10/03 05:21:36;;;;;;;66.55;33.60;;;;;;;12.38;49.91;95766.44;5009067;28;20453;-82
2021/10/03 05:24:02;;;;;;;90.43;43.92;;;;;;;12.66;49.34;95775.50;5030664;28;20033;-82
2021/10/03 05:26:27;;;;;;;74.25;37.42;;;;;;;12.93;48.54;95768.91;5025840;28;20053;-82
2021/10/03 05:28:52;;;;;;;67.95;34.15;;;;;;;13.21;47.97;95774.38;5023783;28;20093;-82
2021/10/03 05:31:19;;;;;;;52.08;33.38;;;;;;;13.47;47.61;95772.34;5021784;28;20014;-82
2021/10/03 05:33:45;;;;;;;44.50;25.85;;;;;;;13.74;46.57;95764.88;5018084;28;20142;-83
2021/10/03 05:36:10;;;;;;;38.90;21.90;;;;;;;14.05;46.16;95768.94;5005213;28;20189;-83
2021/10/03 05:38:36;;;;;;;37.70;20.65;;;;;;;14.40;44.91;95774.88;5015873;28;20042;-83
2021/10/03 05:41:19;;;;;;;43.17;20.30;;;;;;;14.69;44.16;95772.31;5010211;28;20034;-83
2021/10/03 05:43:45;;;;;;;37.50;20.45;;;;;;;14.90;44.21;95774.28;5011816;28;20034;-83
2021/10/03 05:46:26;;;;;;;33.65;20.63;;;;;;;15.19;43.20;95771.63;5011527;28;20041;-83
2021/10/03 05:48:51;;;;;;;35.25;19.85;;;;;;;15.44;42.78;95769.41;5011170;28;20589;-82
2021/10/03 05:51:23;;;;;;;33.28;16.63;;;;;;;15.67;41.87;95767.69;5007716;28;20045;-81
2021/10/03 05:53:48;;;;;;;24.60;15.53;;;;;;;15.90;41.40;95770.13;5011339;28;20061;-81
2021/10/03 05:56:14;;;;;;;30.60;17.25;;;;;;;16.10;41.21;95773.00;5009133;28;20342;-81
2021/10/03 05:58:39;;;;;;;22.95;13.60;;;;;;;16.35;40.79;95764.69;4995224;28;20359;-81
2021/10/03 06:01:18;;;;;;;;;;;;;;;;;;;;;
2021/10/03 06:03:44;;;;;;;16.42;10.07;;;;;;;16.73;39.47;95766.44;4977906;28;20050;-81
2021/10/03 06:06:34;;;;;;;23.08;10.10;;;;;;;16.99;39.64;95771.97;5006280;28;20042;-80
2021/10/03 06:12:17;;;;;;;21.35;10.63;;;;;;;17.36;38.47;95762.31;4992891;28;20034;-79
2021/10/03 06:14:51;;;;;;;15.63;9.32;;;;;;;17.52;38.07;95770.31;5010979;28;20049;-79
2021/10/03 06:17:16;;;;;;;20.08;9.45;;;;;;;17.53;37.86;95750.88;5007692;28;20129;-81
2021/10/03 06:20:04;;;;;;;13.60;8.25;;;;;;;17.70;37.03;95767.31;5009826;28;20054;-80
2021/10/03 06:22:30;;;;;;;10.43;7.13;;;;;;;17.75;36.72;95767.38;5007635;28;20030;-81
2021/10/03 06:25:02;;;;;;;16.05;8.25;;;;;;;17.83;37.29;95766.88;5010204;28;20069;-82
2021/10/03 06:27:27;;;;;;;13.90;7.57;;;;;;;17.92;36.65;95762.75;4996492;28;20402;-83
2021/10/03 06:29:53;;;;;;;23.23;7.65;;;;;;;18.03;36.30;95763.56;4998300;28;20327;-83
2021/10/03 06:32:21;;;;;;;12.57;8.13;;;;;;;17.99;36.14;95759.88;5004872;28;20034;-82
2021/10/03 06:34:49;;;;;;;21.17;8.65;;;;;;;17.97;36.10;95760.13;5017708;28;20042;-82
2021/10/03 06:37:33;;;;;;;17.77;7.90;;;;;;;18.00;35.73;95764.88;5019131;28;20121;-83
2021/10/03 06:39:58;;;;;;;10.95;7.07;;;;;;;18.09;35.81;95762.56;5017358;28;20065;-84
2021/10/03 06:42:24;;;;;;;13.63;7.55;;;;;;;18.09;35.04;95759.16;5016176;28;20053;-85
2021/10/03 06:44:49;;;;;;;16.02;6.45;;;;;;;18.02;35.92;95766.47;5010838;28;20094;-87
2021/10/03 06:47:15;;;;;;;9.93;6.35;;;;;;;18.08;35.89;95765.47;5005007;28;20130;-86
2021/10/03 06:49:41;;;;;;;12.85;7.10;;;;;;;18.12;35.99;95758.63;5015686;28;20042;-87
2021/10/03 06:52:07;;;;;;;12.30;7.38;;;;;;;18.21;35.87;95768.41;5008344;28;20522;-86
2021/10/03 06:54:33;;;;;;;9.95;7.45;;;;;;;18.27;35.80;95761.34;4993727;28;20141;-86
2021/10/03 06:56:58;;;;;;;8.15;6.88;;;;;;;18.35;35.65;95757.41;5011089;28;20184;-86
2021/10/03 06:59:24;;;;;;;18.13;7.60;;;;;;;18.46;35.32;95759.84;4995855;28;20037;-86
2021/10/03 07:01:50;;;;;;;16.27;7.97;;;;;;;18.59;35.51;95761.22;5025590;28;20433;-84
2021/10/03 07:04:16;;;;;;;17.52;8.23;;;;;;;18.64;35.21;95763.09;5000924;28;20038;-86
2021/10/03 07:06:41;;;;;;;10.93;8.35;;;;;;;18.53;34.93;95762.22;4983884;28;20685;-84
2021/10/03 07:09:06;;;;;;;16.75;8.38;;;;;;;18.48;35.68;95760.38;5000450;28;20060;-84
2021/10/03 07:11:32;;;;;;;20.42;8.63;;;;;;;18.48;35.35;95760.38;4999950;28;20033;-83
2021/10/03 07:13:58;;;;;;;13.75;8.20;;;;;;;18.50;35.10;95755.63;5010309;28;20044;-84
2021/10/03 07:16:23;;;;;;;12.63;8.30;;;;;;;18.56;35.56;95772.25;5013559;28;20072;-84
2021/10/03 07:18:49;;;;;;;16.90;8.95;;;;;;;18.64;35.58;95765.72;5017926;28;20033;-83
2021/10/03 07:24:36;;;;;;;18.38;9.02;;;;;;;18.86;35.42;95776.84;5531094;23;20070;31
2021/10/03 07:27:02;;;;;;;23.70;8.80;;;;;;;18.94;34.69;95772.91;4993519;28;20117;-86
2021/10/03 07:29:45;;;;;;;20.95;9.38;;;;;;;18.89;34.17;95766.59;4988030;28;20030;-85
2021/10/03 07:32:11;;;;;;;17.83;9.18;;;;;;;18.85;34.53;95780.53;4988734;28;20042;-85
2021/10/03 07:34:36;;;;;;;14.70;9.18;;;;;;;18.79;35.05;95776.31;4985872;28;20042;-86
2021/10/03 07:37:26;;;;;;;21.02;9.27;;;;;;;18.78;34.69;95782.63;4981425;28;20026;-86
2021/10/03 07:39:52;;;;;;;19.00;9.35;;;;;;;18.67;35.04;95778.38;4988018;28;20027;-84
2021/10/03 07:45:39;;;;;;;13.50;9.27;;;;;;;18.66;35.65;95779.44;4989725;28;20049;-84
2021/10/03 07:48:05;;;;;;;19.02;9.63;;;;;;;18.74;35.27;95789.47;4989134;28;20026;-88
2021/10/03 07:50:31;;;;;;;17.30;9.27;;;;;;;18.80;35.62;95797.13;4985405;28;20046;-85
2021/10/03 07:52:56;;;;;;;14.30;8.60;;;;;;;18.86;35.16;95795.28;4993669;28;20070;-84
2021/10/03 07:55:28;;;;;;;20.63;9.13;;;;;;;18.87;35.27;95794.22;4983865;28;20092;-84
2021/10/03 07:57:54;;;;;;;27.70;8.93;;;;;;;18.97;34.92;95796.91;4988702;28;20034;-85
2021/10/03 08:00:20;;;;;;;15.93;9.68;;;;;;;18.95;34.62;95790.31;4984445;28;20031;-84
2021/10/03 08:02:45;;;;;;;19.10;9.57;;;;;;;18.95;34.91;95795.59;4971631;28;20039;-84
2021/10/03 08:05:12;;;;;;;14.10;9.07;;;;;;;18.91;34.75;95790.06;4978499;28;20023;-85
2021/10/03 08:07:38;;;;;;;18.45;8.98;;;;;;;18.92;35.14;95788.22;4990392;28;20476;-85
2021/10/03 08:10:05;;;;;;;16.77;8.70;;;;;;;18.91;34.94;95789.25;4986084;28;20039;-85
2021/10/03 08:12:31;;;;;;;16.17;9.75;;;;;;;18.86;34.81;95784.75;4991626;28;20030;-81
2021/10/03 08:14:57;;;;;;;16.58;8.60;;;;;;;18.82;35.31;95781.06;4984599;28;20039;-81
2021/10/03 08:17:22;;;;;;;29.80;9.40;;;;;;;18.86;34.80;95782.09;4981293;28;20552;-77
2021/10/03 08:19:48;;;;;;;17.27;8.68;;;;;;;18.88;35.19;95785.31;4981788;28;20046;-80
2021/10/03 08:22:14;;;;;;;17.73;9.65;;;;;;;18.89;34.95;95781.63;4966505;28;20031;-80
2021/10/03 08:24:39;;;;;;;21.98;8.70;;;;;;;18.85;35.17;95783.16;4991911;28;20042;-80
2021/10/03 08:27:04;;;;;;;17.25;8.80;;;;;;;18.86;35.42;95784.75;4983481;28;20038;-79
2021/10/03 08:29:30;;;;;;;29.80;9.77;;;;;;;18.89;35.22;95781.63;4969246;28;20467;-80
2021/10/03 08:31:55;;;;;;;14.48;8.60;;;;;;;18.89;34.57;95771.06;4984019;28;20042;-81
2021/10/03 08:34:21;;;;;;;13.15;8.90;;;;;;;18.87;34.53;95762.59;4986701;28;20429;-81
2021/10/03 08:36:46;;;;;;;22.73;9.75;;;;;;;18.89;34.91;95765.81;4967999;28;20046;-81
2021/10/03 08:39:12;;;;;;;16.58;9.05;;;;;;;18.87;34.90;95767.88;4986521;28;20030;-82
2021/10/03 08:41:40;;;;;;;21.27;8.63;;;;;;;18.90;34.78;95756.84;4986933;28;20118;-81
2021/10/03 08:44:05;;;;;;;23.98;8.93;;;;;;;18.89;35.00;95765.81;4986487;28;20038;-80
2021/10/03 08:46:31;;;;;;;17.00;8.80;;;;;;;18.89;34.95;95771.06;4987268;28;20023;-79
2021/10/03 08:48:57;;;;;;;16.23;9.43;;;;;;;18.91;34.66;95768.97;4968331;28;20608;-79
2021/10/03 08:51:25;;;;;;;16.58;8.15;;;;;;;18.90;34.59;95759.47;4987328;28;20034;-79
2021/10/03 08:53:54;;;;;;;13.27;7.95;;;;;;;18.88;34.81;95761.59;4962849;28;20031;-79
2021/10/03 08:56:21;;;;;;;25.38;8.98;;;;;;;18.75;34.81;95760.22;5001625;28;20030;-79
2021/10/03 08:58:48;;;;;;;16.58;7.72;;;;;;;18.66;35.37;95761.78;5003858;28;20030;-81
2021/10/03 09:01:14;;;;;;;19.08;8.80;;;;;;;18.69;35.01;95760.47;4956352;28;20460;-79
2021/10/03 09:03:39;;;;;;;17.95;8.13;;;;;;;18.72;35.68;95759.97;4985564;28;20490;-79
2021/10/03 09:06:09;;;;;;;23.23;8.00;;;;;;;18.74;35.75;95760.50;4995892;28;20129;-79
2021/10/03 09:08:39;;;;;;;12.68;7.30;;;;;;;18.77;35.06;95759.97;4953465;28;20109;-80
2021/10/03 09:11:06;;;;;;;12.63;6.93;;;;;;;18.70;35.43;95756.78;4985190;28;20054;-80
2021/10/03 09:13:31;;;;;;;15.63;6.57;;;;;;;18.62;34.72;95749.34;4984328;28;20058;-81
2021/10/03 09:16:17;;;;;;;9.93;6.28;;;;;;;18.51;35.47;95744.03;4990514;28;20042;-79
2021/10/03 09:18:46;;;;;;;11.38;7.10;;;;;;;18.47;35.08;95742.19;4988391;28;20034;-79
2021/10/03 09:21:33;;;;;;;16.52;6.90;;;;;;;18.37;35.32;95742.94;5010041;28;20573;-80
2021/10/03 09:24:14;;;;;;;14.52;7.72;;;;;;;18.37;35.79;95737.66;4973993;28;20035;-78
2021/10/03 09:27:01;;;;;;;12.25;6.35;;;;;;;18.41;35.23;95732.69;4985137;28;20034;-78
2021/10/03 09:29:30;;;;;;;22.77;10.25;;;;;;;18.46;36.26;95736.13;4985886;28;20038;-78
2021/10/03 09:32:08;;;;;;;14.48;7.43;;;;;;;18.42;35.14;95737.72;4978132;28;20030;-77
2021/10/03 09:34:34;;;;;;;18.95;7.63;;;;;;;18.39;34.90;95730.34;4993336;28;20038;-78
2021/10/03 09:37:18;;;;;;;11.77;6.90;;;;;;;18.34;35.16;95729.50;5017852;28;20041;-78
2021/10/03 09:39:44;;;;;;;11.05;6.88;;;;;;;18.36;35.37;95725.56;4988837;28;20121;-78
2021/10/03 09:42:16;;;;;;;14.15;6.40;;;;;;;18.34;35.44;95722.41;4991114;28;20562;-79
2021/10/03 09:45:02;;;;;;;13.18;6.93;;;;;;;18.36;35.59;95722.13;4983229;28;20038;-78
2021/10/03 09:47:35;;;;;;;16.83;7.00;;;;;;;18.24;36.01;95720.53;4984905;28;20034;-84
2021/10/03 09:50:01;;;;;;;;;;;;;;;17.91;37.20;95724.31;4994283;28;20031;-84
2021/10/03 09:52:26;;;;;;;24.88;8.20;;;;;;;17.68;36.90;95720.22;4988214;28;19922;-79
2021/10/03 09:54:52;;;;;;;12.05;7.00;;;;;;;17.55;37.84;95725.09;5013083;28;20031;-85
2021/10/03 09:57:18;;;;;;;9.45;6.72;;;;;;;17.53;37.47;95719.31;4982925;28;20110;-85
2021/10/03 10:03:06;;;;;;;14.20;6.13;;;;;;;17.51;37.14;95708.25;4973839;28;20571;-85
2021/10/03 10:05:32;;;;;;;20.17;7.07;;;;;;;17.49;37.10;95705.09;5562372;23;20058;-84
2021/10/03 10:07:58;;;;;;;8.90;6.45;;;;;;;17.50;38.50;95709.28;4998292;28;20046;-84
2021/10/03 10:10:33;;;;;;;18.02;6.53;;;;;;;17.56;37.59;95700.38;4981842;28;20175;-86
2021/10/03 10:13:03;;;;;;;20.80;7.43;;;;;;;17.53;37.27;95700.91;4978262;28;20035;-85
2021/10/03 10:15:28;;;;;;;19.60;7.40;;;;;;;17.38;37.44;95694.50;4979189;28;20526;-86
2021/10/03 10:17:54;;;;;;;11.40;6.72;;;;;;;17.42;37.53;95691.38;4950430;28;20037;-86
2021/10/03 10:20:20;;;;;;;16.65;6.60;;;;;;;17.49;37.95;95689.31;4981788;28;20035;-84
2021/10/03 10:25:54;;;;;;;13.35;6.32;;;;;;;17.82;38.38;95667.97;5345967;23;20481;-83
2021/10/03 10:28:29;;;;;;;17.83;6.00;;;;;;;17.74;36.67;95671.09;4996701;28;20105;-83
2021/10/03 10:31:14;;;;;;;8.55;5.50;;;;;;;17.67;36.79;95659.97;4953817;28;20050;-84
2021/10/03 10:33:53;;;;;;;13.98;5.75;;;;;;;17.75;36.24;95656.88;4936046;28;20522;-84
2021/10/03 10:36:29;;;;;;;7.15;5.13;;;;;;;17.79;35.89;95650.06;4972495;28;20043;-85
2021/10/03 10:39:16;;;;;;;24.02;5.70;;;;;;;17.84;36.06;95644.81;4972957;28;20049;-85
2021/10/03 10:41:43;;;;;;;6.53;4.53;;;;;;;17.84;36.54;95644.03;4961820;28;20102;-86
2021/10/03 10:44:24;;;;;;;13.68;6.28;;;;;;;17.87;36.50;95644.28;4961994;28;20034;-85
2021/10/03 10:46:57;;;;;;;11.70;4.90;;;;;;;17.91;36.59;95650.66;4970070;28;20106;-86
2021/10/03 10:49:38;;;;;;;8.82;4.70;;;;;;;17.83;35.90;95648.50;4940978;28;20043;-86
2021/10/03 10:52:19;;;;;;;10.13;4.77;;;;;;;17.81;36.11;95642.69;4976454;28;20035;-85
2021/10/03 10:55:04;;;;;;;12.95;4.78;;;;;;;17.88;35.99;95640.59;4972845;28;20027;-85
2021/10/03 10:57:53;;;;;;;14.30;5.00;;;;;;;17.90;35.96;95637.75;4975174;28;20035;-85
2021/10/03 11:00:19;;;;;;;10.23;4.53;;;;;;;17.94;35.86;95629.06;4957687;28;20487;-86
2021/10/03 11:03:04;;;;;;;8.50;5.18;;;;;;;18.00;36.09;95627.25;4955898;28;20046;-85
2021/10/03 11:05:34;;;;;;;8.32;5.03;;;;;;;18.06;36.35;95630.66;4929390;28;20058;-85
2021/10/03 11:08:05;;;;;;;12.00;4.78;;;;;;;18.09;35.56;95624.91;4955491;28;20054;-86
2021/10/03 11:10:31;;;;;;;6.40;4.53;;;;;;;17.96;35.77;95616.44;4971154;28;20529;-84
2021/10/03 11:12:56;;;;;;;15.20;5.47;;;;;;;17.87;36.23;95612.72;4951776;28;20039;-84
2021/10/03 11:15:23;;;;;;;15.02;5.68;;;;;;;17.91;36.18;95616.44;4960299;28;20027;-85
2021/10/03 11:17:48;;;;;;;22.35;5.53;;;;;;;17.92;36.38;95610.13;4947045;28;20058;-84
2021/10/03 11:20:14;;;;;;;18.58;4.93;;;;;;;18.00;36.01;95604.34;4943024;28;20043;-85
2021/10/03 11:22:40;;;;;;;9.80;4.70;;;;;;;18.07;35.65;95606.75;4935961;28;20027;-84
2021/10/03 11:25:06;;;;;;;8.00;4.22;;;;;;;18.13;35.53;95604.91;4939347;28;20031;-85
2021/10/03 11:27:31;;;;;;;10.27;4.55;;;;;;;18.14;35.39;95603.88;4960602;28;20032;-85
2021/10/03 11:32:35;;;;;;;12.20;4.70;;;;;;;18.20;34.93;95595.72;5162638;22;20050;-84
2021/10/03 11:35:00;;;;;;;10.00;4.15;;;;;;;18.26;34.87;95593.91;4966554;28;20040;-84
2021/10/03 11:37:29;;;;;;;8.55;4.05;;;;;;;18.28;35.00;95578.63;4983156;28;20042;-86
2021/10/03 11:39:56;;;;;;;13.07;3.90;;;;;;;18.35;35.11;95570.47;4982733;28;20022;-85
2021/10/03 11:42:44;;;;;;;10.35;4.10;;;;;;;18.37;34.33;95584.94;4967307;28;20022;-84
2021/10/03 11:45:22;;;;;;;7.43;3.83;;;;;;;18.38;33.61;95576.00;4965392;28;20042;-79
2021/10/03 11:47:53;;;;;;;5.28;3.47;;;;;;;18.35;32.93;95581.78;4999974;28;20030;-86
2021/10/03 11:50:37;;;;;;;15.40;3.58;;;;;;;18.36;33.06;95572.03;5826448;22;21011;-82
2021/10/03 11:53:20;;;;;;;7.25;3.45;;;;;;;18.45;33.59;95571.28;4978245;28;20049;-85
2021/10/03 11:56:11;;;;;;;4.25;3.40;;;;;;;18.50;33.96;95566.00;4961526;28;20034;-84
2021/10/03 11:58:37;;;;;;;4.70;3.55;;;;;;;18.48;33.31;95557.56;4962319;28;20097;-85